sensor_id;sensor_type;location;lat;lon;timestamp;temperature;humidity
78775;DHT22;68119;43.398;3.676;2023-03-31T00:02:14;12.70;79.40
78775;DHT22;68119;43.398;3.676;2023-03-31T00:04:51;12.80;79.30
78775;DHT22;68119;43.398;3.676;2023-03-31T00:07:26;12.90;79.20
78775;DHT22;68119;43.398;3.676;2023-03-31T00:09:54;13.00;79.00
78775;DHT22;68119;43.398;3.676;2023-03-31T00:12:28;13.00;79.10
78775;DHT22;68119;43.398;3.676;2023-03-31T00:14:57;13.00;78.90
78775;DHT22;68119;43.398;3.676;2023-03-31T00:17:31;13.00;78.60
78775;DHT22;68119;43.398;3.676;2023-03-31T00:20:02;13.10;78.60
78775;DHT22;68119;43.398;3.676;2023-03-31T00:22:30;13.10;78.60
78775;DHT22;68119;43.398;3.676;2023-03-31T00:25:01;13.10;78.60
78775;DHT22;68119;43.398;3.676;2023-03-31T00:27:33;13.00;78.60
78775;DHT22;68119;43.398;3.676;2023-03-31T00:30:04;13.10;78.20
78775;DHT22;68119;43.398;3.676;2023-03-31T00:32:36;13.10;78.20
78775;DHT22;68119;43.398;3.676;2023-03-31T00:35:01;13.10;78.20
78775;DHT22;68119;43.398;3.676;2023-03-31T00:37:28;13.10;78.20
78775;DHT22;68119;43.398;3.676;2023-03-31T00:40:00;13.10;77.90
78775;DHT22;68119;43.398;3.676;2023-03-31T00:42:30;13.10;77.90
78775;DHT22;68119;43.398;3.676;2023-03-31T00:47:56;13.10;77.70
78775;DHT22;68119;43.398;3.676;2023-03-31T00:50:37;13.10;77.50
78775;DHT22;68119;43.398;3.676;2023-03-31T00:53:11;13.10;77.60
78775;DHT22;68119;43.398;3.676;2023-03-31T00:55:49;13.10;77.70
78775;DHT22;68119;43.398;3.676;2023-03-31T00:58:24;13.10;77.50
78775;DHT22;68119;43.398;3.676;2023-03-31T01:01:01;13.10;77.40
78775;DHT22;68119;43.398;3.676;2023-03-31T01:03:34;13.20;77.50
78775;DHT22;68119;43.398;3.676;2023-03-31T01:06:03;13.20;77.40
78775;DHT22;68119;43.398;3.676;2023-03-31T01:08:32;13.20;77.50
78775;DHT22;68119;43.398;3.676;2023-03-31T01:11:05;13.30;77.50
78775;DHT22;68119;43.398;3.676;2023-03-31T01:13:35;13.20;77.40
78775;DHT22;68119;43.398;3.676;2023-03-31T01:16:08;13.10;77.60
78775;DHT22;68119;43.398;3.676;2023-03-31T01:18:36;13.10;77.70
78775;DHT22;68119;43.398;3.676;2023-03-31T01:29:13;13.10;77.80
78775;DHT22;68119;43.398;3.676;2023-03-31T01:40:00;13.10;78.00
78775;DHT22;68119;43.398;3.676;2023-03-31T01:42:50;13.10;77.90
78775;DHT22;68119;43.398;3.676;2023-03-31T01:45:39;13.10;77.80
78775;DHT22;68119;43.398;3.676;2023-03-31T01:48:18;13.10;77.90
78775;DHT22;68119;43.398;3.676;2023-03-31T01:51:15;13.10;77.60
78775;DHT22;68119;43.398;3.676;2023-03-31T01:54:19;13.10;77.80
78775;DHT22;68119;43.398;3.676;2023-03-31T01:56:56;13.00;77.80
78775;DHT22;68119;43.398;3.676;2023-03-31T01:59:49;12.90;78.10
78775;DHT22;68119;43.398;3.676;2023-03-31T02:02:48;12.90;78.20
78775;DHT22;68119;43.398;3.676;2023-03-31T02:05:26;12.80;78.40
78775;DHT22;68119;43.398;3.676;2023-03-31T02:11:07;12.80;78.50
78775;DHT22;68119;43.398;3.676;2023-03-31T02:13:37;12.80;78.50
78775;DHT22;68119;43.398;3.676;2023-03-31T02:16:09;12.80;78.40
78775;DHT22;68119;43.398;3.676;2023-03-31T02:18:48;12.80;78.30
78775;DHT22;68119;43.398;3.676;2023-03-31T02:21:23;12.80;78.40
78775;DHT22;68119;43.398;3.676;2023-03-31T02:23:54;12.80;78.40
78775;DHT22;68119;43.398;3.676;2023-03-31T02:26:30;12.80;78.70
78775;DHT22;68119;43.398;3.676;2023-03-31T02:29:02;12.90;78.70
78775;DHT22;68119;43.398;3.676;2023-03-31T02:31:39;12.90;78.70
78775;DHT22;68119;43.398;3.676;2023-03-31T02:34:08;12.90;78.80
78775;DHT22;68119;43.398;3.676;2023-03-31T02:36:45;12.90;78.70
78775;DHT22;68119;43.398;3.676;2023-03-31T02:39:22;12.90;78.80
78775;DHT22;68119;43.398;3.676;2023-03-31T02:41:52;12.90;78.70
78775;DHT22;68119;43.398;3.676;2023-03-31T02:44:19;12.80;79.00
78775;DHT22;68119;43.398;3.676;2023-03-31T02:46:46;12.70;79.00
78775;DHT22;68119;43.398;3.676;2023-03-31T02:49:17;12.70;79.00
78775;DHT22;68119;43.398;3.676;2023-03-31T03:03:05;12.60;79.10
78775;DHT22;68119;43.398;3.676;2023-03-31T03:06:04;12.60;79.00
78775;DHT22;68119;43.398;3.676;2023-03-31T03:13:53;12.50;79.30
78775;DHT22;68119;43.398;3.676;2023-03-31T03:16:35;12.30;79.40
78775;DHT22;68119;43.398;3.676;2023-03-31T03:19:05;12.30;79.60
78775;DHT22;68119;43.398;3.676;2023-03-31T03:21:36;12.30;79.70
78775;DHT22;68119;43.398;3.676;2023-03-31T03:24:05;12.20;79.70
78775;DHT22;68119;43.398;3.676;2023-03-31T03:26:36;12.20;79.80
78775;DHT22;68119;43.398;3.676;2023-03-31T03:29:07;12.20;79.90
78775;DHT22;68119;43.398;3.676;2023-03-31T03:31:36;12.20;79.80
78775;DHT22;68119;43.398;3.676;2023-03-31T03:34:10;12.20;79.70
78775;DHT22;68119;43.398;3.676;2023-03-31T03:36:38;12.10;79.80
78775;DHT22;68119;43.398;3.676;2023-03-31T03:39:09;12.10;79.90
78775;DHT22;68119;43.398;3.676;2023-03-31T03:41:40;12.20;79.90
78775;DHT22;68119;43.398;3.676;2023-03-31T03:44:09;11.90;80.20
78775;DHT22;68119;43.398;3.676;2023-03-31T03:46:40;24.00;50.00
78775;DHT22;68119;43.398;3.676;2023-03-31T03:49:07;11.90;80.50
78775;DHT22;68119;43.398;3.676;2023-03-31T03:51:36;11.90;80.50
78775;DHT22;68119;43.398;3.676;2023-03-31T03:54:02;11.90;80.60
78775;DHT22;68119;43.398;3.676;2023-03-31T03:56:30;12.10;80.50
78775;DHT22;68119;43.398;3.676;2023-03-31T03:59:09;11.80;80.80
78775;DHT22;68119;43.398;3.676;2023-03-31T04:21:31;11.90;80.50
78775;DHT22;68119;43.398;3.676;2023-03-31T04:24:00;11.70;80.80
78775;DHT22;68119;43.398;3.676;2023-03-31T04:29:13;-49.50;74.40
78775;DHT22;68119;43.398;3.676;2023-03-31T04:31:50;11.70;81.00
78775;DHT22;68119;43.398;3.676;2023-03-31T04:34:25;11.70;80.80
78775;DHT22;68119;43.398;3.676;2023-03-31T04:37:05;24.00;50.00
78775;DHT22;68119;43.398;3.676;2023-03-31T04:42:03;24.00;50.00
78775;DHT22;68119;43.398;3.676;2023-03-31T05:04:37;-18.30;78.50
78775;DHT22;68119;43.398;3.676;2023-03-31T05:07:03;-13.10;79.00
78775;DHT22;68119;43.398;3.676;2023-03-31T05:09:31;-6.40;79.80
78775;DHT22;68119;43.398;3.676;2023-03-31T05:12:00;-8.80;79.50
78775;DHT22;68119;43.398;3.676;2023-03-31T05:14:26;-4.60;79.80
78775;DHT22;68119;43.398;3.676;2023-03-31T05:17:00;-4.60;79.80
78775;DHT22;68119;43.398;3.676;2023-03-31T05:19:26;-6.00;79.70
78775;DHT22;68119;43.398;3.676;2023-03-31T05:21:56;-2.90;79.80
78775;DHT22;68119;43.398;3.676;2023-03-31T05:24:28;-3.00;79.80
78775;DHT22;68119;43.398;3.676;2023-03-31T05:27:00;-9.90;79.30
78775;DHT22;68119;43.398;3.676;2023-03-31T05:29:31;-11.20;78.80
78775;DHT22;68119;43.398;3.676;2023-03-31T05:32:03;-11.00;79.10
78775;DHT22;68119;43.398;3.676;2023-03-31T05:34:32;-9.00;79.50
78775;DHT22;68119;43.398;3.676;2023-03-31T05:37:03;-9.30;79.30
78775;DHT22;68119;43.398;3.676;2023-03-31T05:39:29;-7.90;79.50
78775;DHT22;68119;43.398;3.676;2023-03-31T05:41:58;-3.60;79.90
78775;DHT22;68119;43.398;3.676;2023-03-31T05:44:31;-5.60;79.50
78775;DHT22;68119;43.398;3.676;2023-03-31T05:46:59;-5.40;79.50
78775;DHT22;68119;43.398;3.676;2023-03-31T05:49:32;-1.00;79.90
78775;DHT22;68119;43.398;3.676;2023-03-31T05:51:58;-0.20;80.00
78775;DHT22;68119;43.398;3.676;2023-03-31T05:54:27;-0.10;80.00
78775;DHT22;68119;43.398;3.676;2023-03-31T05:56:56;-0.30;79.80
78775;DHT22;68119;43.398;3.676;2023-03-31T05:59:24;-0.70;79.70
78775;DHT22;68119;43.398;3.676;2023-03-31T06:01:50;-0.30;79.70
78775;DHT22;68119;43.398;3.676;2023-03-31T06:04:22;0.10;79.70
78775;DHT22;68119;43.398;3.676;2023-03-31T06:06:54;0.20;79.60
78775;DHT22;68119;43.398;3.676;2023-03-31T06:09:25;0.20;79.50
78775;DHT22;68119;43.398;3.676;2023-03-31T06:11:55;0.70;79.60
78775;DHT22;68119;43.398;3.676;2023-03-31T06:14:27;1.10;79.50
78775;DHT22;68119;43.398;3.676;2023-03-31T06:16:53;0.80;79.40
78775;DHT22;68119;43.398;3.676;2023-03-31T06:19:35;4.30;79.50
78775;DHT22;68119;43.398;3.676;2023-03-31T06:22:09;4.70;79.50
78775;DHT22;68119;43.398;3.676;2023-03-31T06:24:38;4.60;79.20
78775;DHT22;68119;43.398;3.676;2023-03-31T06:27:05;5.00;79.10
78775;DHT22;68119;43.398;3.676;2023-03-31T06:29:33;5.00;78.90
78775;DHT22;68119;43.398;3.676;2023-03-31T06:32:04;5.40;78.70
78775;DHT22;68119;43.398;3.676;2023-03-31T06:34:32;5.80;78.40
78775;DHT22;68119;43.398;3.676;2023-03-31T06:37:00;6.30;78.10
78775;DHT22;68119;43.398;3.676;2023-03-31T06:39:26;6.90;78.10
78775;DHT22;68119;43.398;3.676;2023-03-31T06:41:57;7.00;77.90
78775;DHT22;68119;43.398;3.676;2023-03-31T06:44:25;6.60;77.70
78775;DHT22;68119;43.398;3.676;2023-03-31T06:46:54;6.80;77.60
78775;DHT22;68119;43.398;3.676;2023-03-31T06:49:25;4.40;77.10
78775;DHT22;68119;43.398;3.676;2023-03-31T06:51:57;2.20;76.70
78775;DHT22;68119;43.398;3.676;2023-03-31T06:54:24;3.50;76.80
78775;DHT22;68119;43.398;3.676;2023-03-31T06:56:58;3.90;76.90
78775;DHT22;68119;43.398;3.676;2023-03-31T06:59:24;4.10;76.90
78775;DHT22;68119;43.398;3.676;2023-03-31T07:01:55;4.20;77.20
78775;DHT22;68119;43.398;3.676;2023-03-31T07:04:26;3.90;77.20
78775;DHT22;68119;43.398;3.676;2023-03-31T07:06:56;3.90;77.20
78775;DHT22;68119;43.398;3.676;2023-03-31T07:09:24;3.50;77.30
78775;DHT22;68119;43.398;3.676;2023-03-31T07:11:50;3.60;77.40
78775;DHT22;68119;43.398;3.676;2023-03-31T07:14:16;3.70;77.20
78775;DHT22;68119;43.398;3.676;2023-03-31T07:16:46;4.10;77.10
78775;DHT22;68119;43.398;3.676;2023-03-31T07:19:16;4.80;76.80
78775;DHT22;68119;43.398;3.676;2023-03-31T07:21:48;6.10;77.00
78775;DHT22;68119;43.398;3.676;2023-03-31T07:24:20;7.90;76.80
78775;DHT22;68119;43.398;3.676;2023-03-31T07:26:50;6.90;76.00
78775;DHT22;68119;43.398;3.676;2023-03-31T07:29:21;-4.90;74.70
78775;DHT22;68119;43.398;3.676;2023-03-31T07:31:50;-4.00;74.60
78775;DHT22;68119;43.398;3.676;2023-03-31T07:34:20;-4.40;74.10
78775;DHT22;68119;43.398;3.676;2023-03-31T07:36:58;-9.30;73.30
78775;DHT22;68119;43.398;3.676;2023-03-31T07:39:28;-25.10;71.90
78775;DHT22;68119;43.398;3.676;2023-03-31T07:42:02;-23.10;72.10
78775;DHT22;68119;43.398;3.676;2023-03-31T07:44:36;-10.70;73.00
78775;DHT22;68119;43.398;3.676;2023-03-31T07:47:10;-5.10;73.40
78775;DHT22;68119;43.398;3.676;2023-03-31T07:49:39;-1.30;73.90
78775;DHT22;68119;43.398;3.676;2023-03-31T07:52:07;2.50;74.10
78775;DHT22;68119;43.398;3.676;2023-03-31T07:54:33;0.50;73.40
78775;DHT22;68119;43.398;3.676;2023-03-31T07:57:05;13.70;74.10
78775;DHT22;68119;43.398;3.676;2023-03-31T07:59:33;24.00;50.00
78775;DHT22;68119;43.398;3.676;2023-03-31T08:02:03;14.00;72.50
78775;DHT22;68119;43.398;3.676;2023-03-31T08:04:36;14.10;72.40
78775;DHT22;68119;43.398;3.676;2023-03-31T08:07:04;14.10;72.50
78775;DHT22;68119;43.398;3.676;2023-03-31T08:09:33;14.00;72.50
78775;DHT22;68119;43.398;3.676;2023-03-31T08:12:07;13.90;72.40
78775;DHT22;68119;43.398;3.676;2023-03-31T08:14:45;14.00;72.00
78775;DHT22;68119;43.398;3.676;2023-03-31T08:17:16;14.10;72.10
78775;DHT22;68119;43.398;3.676;2023-03-31T08:19:48;14.20;71.90
78775;DHT22;68119;43.398;3.676;2023-03-31T08:22:16;14.10;72.00
78775;DHT22;68119;43.398;3.676;2023-03-31T08:24:50;14.20;71.70
78775;DHT22;68119;43.398;3.676;2023-03-31T08:27:16;-47.60;64.60
78775;DHT22;68119;43.398;3.676;2023-03-31T08:29:44;-37.10;67.60
78775;DHT22;68119;43.398;3.676;2023-03-31T08:32:10;-24.00;68.40
78775;DHT22;68119;43.398;3.676;2023-03-31T08:34:36;-36.60;67.50
78775;DHT22;68119;43.398;3.676;2023-03-31T08:37:05;-33.70;67.20
78775;DHT22;68119;43.398;3.676;2023-03-31T08:39:31;14.40;70.70
78775;DHT22;68119;43.398;3.676;2023-03-31T08:47:41;14.40;70.50
78775;DHT22;68119;43.398;3.676;2023-03-31T08:50:18;13.50;69.90
78775;DHT22;68119;43.398;3.676;2023-03-31T08:55:55;14.60;70.00
78775;DHT22;68119;43.398;3.676;2023-03-31T09:15:32;15.00;70.20
78775;DHT22;68119;43.398;3.676;2023-03-31T09:18:28;14.50;71.10
78775;DHT22;68119;43.398;3.676;2023-03-31T09:21:10;14.80;70.50
78775;DHT22;68119;43.398;3.676;2023-03-31T09:29:11;14.60;70.70
78775;DHT22;68119;43.398;3.676;2023-03-31T09:31:46;14.70;71.20
78775;DHT22;68119;43.398;3.676;2023-03-31T09:34:25;14.50;71.20
78775;DHT22;68119;43.398;3.676;2023-03-31T09:36:54;14.60;71.50
78775;DHT22;68119;43.398;3.676;2023-03-31T09:39:23;14.70;70.90
78775;DHT22;68119;43.398;3.676;2023-03-31T09:41:50;14.70;70.50
78775;DHT22;68119;43.398;3.676;2023-03-31T09:44:30;15.00;70.40
78775;DHT22;68119;43.398;3.676;2023-03-31T09:46:58;15.60;68.70
78775;DHT22;68119;43.398;3.676;2023-03-31T09:49:34;15.60;68.70
78775;DHT22;68119;43.398;3.676;2023-03-31T09:55:31;16.00;67.60
78775;DHT22;68119;43.398;3.676;2023-03-31T09:58:06;16.40;66.90
78775;DHT22;68119;43.398;3.676;2023-03-31T10:00:33;16.10;67.20
78775;DHT22;68119;43.398;3.676;2023-03-31T10:03:01;15.80;66.80
78775;DHT22;68119;43.398;3.676;2023-03-31T10:06:00;15.80;67.40
78775;DHT22;68119;43.398;3.676;2023-03-31T10:11:17;15.80;67.90
78775;DHT22;68119;43.398;3.676;2023-03-31T10:13:47;16.00;67.30
78775;DHT22;68119;43.398;3.676;2023-03-31T10:16:31;16.70;65.40
78775;DHT22;68119;43.398;3.676;2023-03-31T10:21:47;-0.10;63.90
78775;DHT22;68119;43.398;3.676;2023-03-31T10:24:19;16.60;65.30
78775;DHT22;68119;43.398;3.676;2023-03-31T10:29:25;18.20;53.20
78775;DHT22;68119;43.398;3.676;2023-03-31T10:34:26;18.90;50.50
78775;DHT22;68119;43.398;3.676;2023-03-31T10:39:18;19.70;49.30
78775;DHT22;68119;43.398;3.676;2023-03-31T10:41:51;19.70;48.80
78775;DHT22;68119;43.398;3.676;2023-03-31T10:44:37;19.70;48.70
78775;DHT22;68119;43.398;3.676;2023-03-31T11:15:39;21.70;45.90
78775;DHT22;68119;43.398;3.676;2023-03-31T11:25:57;20.60;46.60
78775;DHT22;68119;43.398;3.676;2023-03-31T11:57:41;22.60;43.10
78775;DHT22;68119;43.398;3.676;2023-03-31T12:05:30;22.50;43.70
78775;DHT22;68119;43.398;3.676;2023-03-31T12:08:05;22.10;44.20
78775;DHT22;68119;43.398;3.676;2023-03-31T12:11:01;21.70;45.50
78775;DHT22;68119;43.398;3.676;2023-03-31T12:13:41;21.40;45.50
78775;DHT22;68119;43.398;3.676;2023-03-31T12:21:49;21.80;44.20
78775;DHT22;68119;43.398;3.676;2023-03-31T12:24:18;21.20;44.70
78775;DHT22;68119;43.398;3.676;2023-03-31T12:27:24;20.90;44.60
78775;DHT22;68119;43.398;3.676;2023-03-31T12:30:02;20.30;44.80
78775;DHT22;68119;43.398;3.676;2023-03-31T12:32:40;20.50;45.00
78775;DHT22;68119;43.398;3.676;2023-03-31T12:35:24;20.80;44.70
78775;DHT22;68119;43.398;3.676;2023-03-31T12:40:49;21.60;44.20
78775;DHT22;68119;43.398;3.676;2023-03-31T12:43:36;21.50;44.40
78775;DHT22;68119;43.398;3.676;2023-03-31T12:52:12;23.20;41.70
78775;DHT22;68119;43.398;3.676;2023-03-31T12:57:26;22.00;42.90
78775;DHT22;68119;43.398;3.676;2023-03-31T13:02:42;21.60;42.80
78775;DHT22;68119;43.398;3.676;2023-03-31T16:50:58;19.70;44.20
78775;DHT22;68119;43.398;3.676;2023-03-31T16:53:34;19.50;44.60
78775;DHT22;68119;43.398;3.676;2023-03-31T16:56:02;19.50;44.80
78775;DHT22;68119;43.398;3.676;2023-03-31T16:58:29;19.50;45.30
78775;DHT22;68119;43.398;3.676;2023-03-31T17:00:56;19.30;45.30
78775;DHT22;68119;43.398;3.676;2023-03-31T17:03:25;19.10;45.50
78775;DHT22;68119;43.398;3.676;2023-03-31T17:05:53;19.30;45.50
78775;DHT22;68119;43.398;3.676;2023-03-31T17:08:30;19.20;45.50
78775;DHT22;68119;43.398;3.676;2023-03-31T17:11:05;19.10;45.20
78775;DHT22;68119;43.398;3.676;2023-03-31T17:13:34;19.00;45.50
78775;DHT22;68119;43.398;3.676;2023-03-31T17:16:03;18.90;45.60
78775;DHT22;68119;43.398;3.676;2023-03-31T17:18:31;18.50;45.20
78775;DHT22;68119;43.398;3.676;2023-03-31T17:21:08;18.50;45.70
78775;DHT22;68119;43.398;3.676;2023-03-31T17:23:37;18.40;45.70
78775;DHT22;68119;43.398;3.676;2023-03-31T17:26:08;18.30;46.10
78775;DHT22;68119;43.398;3.676;2023-03-31T17:41:13;17.50;46.10
78775;DHT22;68119;43.398;3.676;2023-03-31T18:06:13;16.70;50.00
78775;DHT22;68119;43.398;3.676;2023-03-31T18:08:42;16.40;50.00
78775;DHT22;68119;43.398;3.676;2023-03-31T18:11:13;16.40;49.30
78775;DHT22;68119;43.398;3.676;2023-03-31T18:13:45;16.40;49.20
78775;DHT22;68119;43.398;3.676;2023-03-31T18:16:13;16.40;49.10
78775;DHT22;68119;43.398;3.676;2023-03-31T18:18:44;16.40;49.10
78775;DHT22;68119;43.398;3.676;2023-03-31T18:21:15;16.40;49.20
78775;DHT22;68119;43.398;3.676;2023-03-31T18:23:51;16.30;49.50
78775;DHT22;68119;43.398;3.676;2023-03-31T18:26:20;16.20;49.50
78775;DHT22;68119;43.398;3.676;2023-03-31T18:28:57;16.20;49.20
78775;DHT22;68119;43.398;3.676;2023-03-31T18:31:29;16.20;49.40
78775;DHT22;68119;43.398;3.676;2023-03-31T18:33:57;16.10;49.80
78775;DHT22;68119;43.398;3.676;2023-03-31T18:36:26;16.00;50.40
78775;DHT22;68119;43.398;3.676;2023-03-31T18:38:57;16.00;50.80
78775;DHT22;68119;43.398;3.676;2023-03-31T18:41:25;15.90;51.10
78775;DHT22;68119;43.398;3.676;2023-03-31T18:43:56;15.80;51.50
78775;DHT22;68119;43.398;3.676;2023-03-31T18:46:29;15.80;51.90
78775;DHT22;68119;43.398;3.676;2023-03-31T18:48:55;15.70;52.30
78775;DHT22;68119;43.398;3.676;2023-03-31T18:51:25;15.60;52.60
78775;DHT22;68119;43.398;3.676;2023-03-31T18:53:53;15.60;52.30
78775;DHT22;68119;43.398;3.676;2023-03-31T18:56:19;15.60;52.50
78775;DHT22;68119;43.398;3.676;2023-03-31T18:58:48;15.60;52.80
78775;DHT22;68119;43.398;3.676;2023-03-31T19:01:22;15.60;52.80
78775;DHT22;68119;43.398;3.676;2023-03-31T19:03:50;15.40;53.10
78775;DHT22;68119;43.398;3.676;2023-03-31T19:06:27;15.50;53.60
78775;DHT22;68119;43.398;3.676;2023-03-31T19:08:56;15.40;53.60
78775;DHT22;68119;43.398;3.676;2023-03-31T19:11:21;15.30;54.10
78775;DHT22;68119;43.398;3.676;2023-03-31T19:13:50;15.20;54.40
78775;DHT22;68119;43.398;3.676;2023-03-31T19:16:21;15.20;54.60
78775;DHT22;68119;43.398;3.676;2023-03-31T19:18:53;15.20;54.60
78775;DHT22;68119;43.398;3.676;2023-03-31T19:21:24;15.30;54.50
78775;DHT22;68119;43.398;3.676;2023-03-31T19:23:59;15.30;54.60
78775;DHT22;68119;43.398;3.676;2023-03-31T19:26:29;15.30;54.60
78775;DHT22;68119;43.398;3.676;2023-03-31T19:29:01;15.20;54.60
78775;DHT22;68119;43.398;3.676;2023-03-31T19:31:30;15.20;54.90
78775;DHT22;68119;43.398;3.676;2023-03-31T19:34:04;15.00;55.00
78775;DHT22;68119;43.398;3.676;2023-03-31T19:36:35;15.10;55.00
78775;DHT22;68119;43.398;3.676;2023-03-31T19:39:02;15.10;55.30
78775;DHT22;68119;43.398;3.676;2023-03-31T19:41:37;15.00;55.50
78775;DHT22;68119;43.398;3.676;2023-03-31T19:44:07;15.00;55.90
78775;DHT22;68119;43.398;3.676;2023-03-31T19:46:44;15.00;55.70
78775;DHT22;68119;43.398;3.676;2023-03-31T19:49:15;15.00;55.60
78775;DHT22;68119;43.398;3.676;2023-03-31T19:51:44;14.90;55.90
78775;DHT22;68119;43.398;3.676;2023-03-31T19:54:15;14.90;55.50
78775;DHT22;68119;43.398;3.676;2023-03-31T19:56:48;14.90;55.40
78775;DHT22;68119;43.398;3.676;2023-03-31T19:59:22;14.90;56.10
78775;DHT22;68119;43.398;3.676;2023-03-31T20:01:54;14.80;56.60
78775;DHT22;68119;43.398;3.676;2023-03-31T20:04:22;14.70;56.70
78775;DHT22;68119;43.398;3.676;2023-03-31T20:06:53;14.70;56.40
78775;DHT22;68119;43.398;3.676;2023-03-31T20:09:22;14.70;56.60
78775;DHT22;68119;43.398;3.676;2023-03-31T20:11:58;14.60;56.80
78775;DHT22;68119;43.398;3.676;2023-03-31T20:14:26;14.60;57.00
78775;DHT22;68119;43.398;3.676;2023-03-31T20:16:56;14.60;57.10
78775;DHT22;68119;43.398;3.676;2023-03-31T20:19:31;14.50;57.40
78775;DHT22;68119;43.398;3.676;2023-03-31T20:21:56;14.60;57.10
78775;DHT22;68119;43.398;3.676;2023-03-31T20:24:26;14.60;57.40
78775;DHT22;68119;43.398;3.676;2023-03-31T20:26:57;14.50;58.20
78775;DHT22;68119;43.398;3.676;2023-03-31T20:29:28;14.50;58.60
78775;DHT22;68119;43.398;3.676;2023-03-31T20:31:57;14.50;58.40
78775;DHT22;68119;43.398;3.676;2023-03-31T20:34:29;14.40;58.70
78775;DHT22;68119;43.398;3.676;2023-03-31T20:37:00;14.40;58.30
78775;DHT22;68119;43.398;3.676;2023-03-31T20:39:34;14.40;57.70
78775;DHT22;68119;43.398;3.676;2023-03-31T20:42:02;14.40;57.70
78775;DHT22;68119;43.398;3.676;2023-03-31T20:44:30;14.30;57.70
78775;DHT22;68119;43.398;3.676;2023-03-31T20:46:58;14.40;57.30
78775;DHT22;68119;43.398;3.676;2023-03-31T20:49:28;14.40;57.60
78775;DHT22;68119;43.398;3.676;2023-03-31T20:51:53;14.30;57.50
78775;DHT22;68119;43.398;3.676;2023-03-31T20:54:23;14.30;57.60
78775;DHT22;68119;43.398;3.676;2023-03-31T20:56:49;14.40;57.50
78775;DHT22;68119;43.398;3.676;2023-03-31T20:59:21;14.30;57.40
78775;DHT22;68119;43.398;3.676;2023-03-31T21:01:52;14.30;57.40
78775;DHT22;68119;43.398;3.676;2023-03-31T21:04:26;14.30;57.30
78775;DHT22;68119;43.398;3.676;2023-03-31T21:06:54;14.20;57.30
78775;DHT22;68119;43.398;3.676;2023-03-31T21:09:28;14.20;57.20
78775;DHT22;68119;43.398;3.676;2023-03-31T21:11:57;14.20;57.60
78775;DHT22;68119;43.398;3.676;2023-03-31T21:14:25;14.20;57.60
78775;DHT22;68119;43.398;3.676;2023-03-31T21:16:54;14.20;56.80
78775;DHT22;68119;43.398;3.676;2023-03-31T21:19:22;14.00;57.20
78775;DHT22;68119;43.398;3.676;2023-03-31T21:21:52;14.00;56.90
78775;DHT22;68119;43.398;3.676;2023-03-31T21:24:21;14.00;56.70
78775;DHT22;68119;43.398;3.676;2023-03-31T21:26:46;14.00;56.40
78775;DHT22;68119;43.398;3.676;2023-03-31T21:29:15;13.90;57.10
78775;DHT22;68119;43.398;3.676;2023-03-31T21:31:49;13.90;57.20
78775;DHT22;68119;43.398;3.676;2023-03-31T21:34:17;13.80;57.60
78775;DHT22;68119;43.398;3.676;2023-03-31T21:36:45;13.80;57.50
78775;DHT22;68119;43.398;3.676;2023-03-31T21:39:14;13.70;57.30
78775;DHT22;68119;43.398;3.676;2023-03-31T21:41:40;13.70;57.10
78775;DHT22;68119;43.398;3.676;2023-03-31T21:44:11;13.70;57.30
78775;DHT22;68119;43.398;3.676;2023-03-31T21:46:46;13.60;57.50
78775;DHT22;68119;43.398;3.676;2023-03-31T21:49:16;13.50;57.70
78775;DHT22;68119;43.398;3.676;2023-03-31T21:51:48;13.60;57.80
78775;DHT22;68119;43.398;3.676;2023-03-31T21:54:14;13.80;57.30
78775;DHT22;68119;43.398;3.676;2023-03-31T21:56:47;13.70;57.10
78775;DHT22;68119;43.398;3.676;2023-03-31T21:59:18;13.70;56.40
78775;DHT22;68119;43.398;3.676;2023-03-31T22:01:51;13.60;56.90
78775;DHT22;68119;43.398;3.676;2023-03-31T22:04:20;13.50;57.70
78775;DHT22;68119;43.398;3.676;2023-03-31T22:06:48;13.60;57.00
78775;DHT22;68119;43.398;3.676;2023-03-31T22:09:22;13.50;57.90
78775;DHT22;68119;43.398;3.676;2023-03-31T22:11:56;13.40;58.50
78775;DHT22;68119;43.398;3.676;2023-03-31T22:14:27;13.30;58.70
78775;DHT22;68119;43.398;3.676;2023-03-31T22:16:58;13.30;58.50
78775;DHT22;68119;43.398;3.676;2023-03-31T22:19:26;13.30;59.10
78775;DHT22;68119;43.398;3.676;2023-03-31T22:21:56;13.30;58.10
78775;DHT22;68119;43.398;3.676;2023-03-31T22:24:22;13.30;58.00
78775;DHT22;68119;43.398;3.676;2023-03-31T22:26:51;13.30;58.20
78775;DHT22;68119;43.398;3.676;2023-03-31T22:29:20;13.20;58.40
78775;DHT22;68119;43.398;3.676;2023-03-31T22:31:53;13.30;58.20
78775;DHT22;68119;43.398;3.676;2023-03-31T22:34:25;13.20;58.00
78775;DHT22;68119;43.398;3.676;2023-03-31T22:36:50;13.30;56.00
78775;DHT22;68119;43.398;3.676;2023-03-31T22:39:16;13.50;56.00
78775;DHT22;68119;43.398;3.676;2023-03-31T22:41:47;13.50;54.80
78775;DHT22;68119;43.398;3.676;2023-03-31T22:44:13;13.50;54.30
78775;DHT22;68119;43.398;3.676;2023-03-31T22:46:42;13.50;54.10
78775;DHT22;68119;43.398;3.676;2023-03-31T22:49:11;13.50;54.10
78775;DHT22;68119;43.398;3.676;2023-03-31T22:51:42;13.50;54.40
78775;DHT22;68119;43.398;3.676;2023-03-31T22:54:15;13.50;53.70
78775;DHT22;68119;43.398;3.676;2023-03-31T22:56:47;13.60;52.60
78775;DHT22;68119;43.398;3.676;2023-03-31T22:59:18;13.50;52.80
78775;DHT22;68119;43.398;3.676;2023-03-31T23:01:51;13.50;52.60
78775;DHT22;68119;43.398;3.676;2023-03-31T23:04:20;13.50;52.50
78775;DHT22;68119;43.398;3.676;2023-03-31T23:06:51;13.60;53.30
78775;DHT22;68119;43.398;3.676;2023-03-31T23:09:25;13.50;53.00
78775;DHT22;68119;43.398;3.676;2023-03-31T23:11:54;13.50;52.90
78775;DHT22;68119;43.398;3.676;2023-03-31T23:14:23;13.50;52.90
78775;DHT22;68119;43.398;3.676;2023-03-31T23:16:54;13.50;52.90
78775;DHT22;68119;43.398;3.676;2023-03-31T23:19:25;13.50;52.70
78775;DHT22;68119;43.398;3.676;2023-03-31T23:22:02;13.50;52.60
78775;DHT22;68119;43.398;3.676;2023-03-31T23:24:28;13.30;53.00
78775;DHT22;68119;43.398;3.676;2023-03-31T23:26:59;13.30;52.60
78775;DHT22;68119;43.398;3.676;2023-03-31T23:29:30;13.30;52.90
78775;DHT22;68119;43.398;3.676;2023-03-31T23:31:58;13.30;53.30
78775;DHT22;68119;43.398;3.676;2023-03-31T23:34:24;13.30;53.30
78775;DHT22;68119;43.398;3.676;2023-03-31T23:36:55;13.20;53.30
78775;DHT22;68119;43.398;3.676;2023-03-31T23:39:26;13.20;53.30
78775;DHT22;68119;43.398;3.676;2023-03-31T23:41:58;13.30;52.90
78775;DHT22;68119;43.398;3.676;2023-03-31T23:44:26;13.30;53.00
78775;DHT22;68119;43.398;3.676;2023-03-31T23:46:54;13.30;52.80
78775;DHT22;68119;43.398;3.676;2023-03-31T23:49:23;13.30;53.30
78775;DHT22;68119;43.398;3.676;2023-03-31T23:51:53;13.20;53.60
78775;DHT22;68119;43.398;3.676;2023-03-31T23:54:25;13.10;53.90
78775;DHT22;68119;43.398;3.676;2023-03-31T23:56:54;13.10;53.90
78775;DHT22;68119;43.398;3.676;2023-03-31T23:59:25;13.10;53.60
